Alexandria, Egypt

7:18 AM EET on December 05, 2016 (GMT +0200)
Shatby | | Change Station

Elev 59 ft 31.21 °N, 29.92 °E | Updated 0 second ago

Partly Cloudy
Partly Cloudy
71.8 °F
Feels Like 77 °F
N
0.0
Wind Variable Wind from NE
Gusts 0.0 mph

Today
High -- | Low -- °F
--% Chance of Precip.
Yesterday
High -- | Low -- °F
Precip. -- in
Pressure 30.15 in
Visibility 1.9 miles
Clouds Few 2000 ft
Heat Index 77 °F
Dew Point 54 °F
Humidity 53%
Rainfall 0.00 in
Snow Depth Not available.
6:44 AM 4:57 PM
Waxing Crescent, 28% visible
METAR HEAX 050500Z 00000KT 3000 BR FEW020 12/11 Q1021 NOSIG
Pressure 30.15 in
Visibility 1.9 miles
Clouds Few 2000 ft
Heat Index 77 °F
Dew Point 54 °F
Humidity 53%
Rainfall 0.00 in
Snow Depth Not available.
6:44 AM 4:57 PM
Waxing Crescent, 28% visible
METAR HEAX 050500Z 00000KT 3000 BR FEW020 12/11 Q1021 NOSIG

10-Day Weather Forecast

No radar image for this location.
×

Almanac

Astronomy

Dec. 05, 2016 Rise Set
Actual Time
Civil Twilight
Nautical Twilight
Astronomical Twilight
Moon
Length of Visible Light
Length of Day
Tomorrow will be .
, % of the Moon is Illuminated

Today's Extremes

Country Highs Country Lows

Community

WunderPhotos

Upload Photos

1,955,765 photos uploaded!

WunderBlog® & News

Nearby

Air Quality

  Air Quality AQ Index Pollutant
Not available.

Snow Depth

Station Depth Elevation

Earthquake Activity

City Distance Mag. Time & Date
Minimum magnitude displayed is 2.5.

Coastal Water Temperatures

Place Temperature

Stations

Nearby Weather Stations

Station Location Temp. Windchill Dew Point Humidity Wind Precip. Elev Updated Type